NCAR-RAP Real-Time Weather Data

Output produced by METARs form (21 May 2019  10:40 UTC)
found at http://weather.rap.ucar.edu/surface/
 
RJSK 211000Z 24005KT 9999 FEW015 SCT025 15/13 Q1004
RJSK 210900Z 24008KT 9999 FEW015 BKN025 16/13 Q1004
RJSK 210800Z 24008KT 190V280 9999 FEW010 SCT020 16/13 Q1004
RJSK 210700Z 24007KT 210V280 9999 FEW008 SCT015 BKN090 16/14 Q1004
RJSK 210600Z 24007KT 210V270 9999 FEW005 SCT010 BKN100 16/14 Q1003
RJSK 210500Z 25006KT 210V280 9999 FEW001 SCT010 BKN045 15/14 Q1003
RJSK 210427Z 26009KT 210V290 9999 -SHRA FEW001 SCT010 BKN040 15/13 Q1003 RMK 1ST001 3ST010 5CU040 A2963
RJSK 210416Z 26014KT 5000 -SHRA BR FEW001 SCT004 BKN007 15/14 Q1003 RMK 1ST001 3ST004 5ST007 A2962
RJSK 210400Z 25015KT 210V280 4000 SHRA BR FEW001 SCT004 BKN006 16/15 Q1002
RJSK 210348Z 24010KT 190V250 6000 R28/2000N SHRA FEW001 SCT005 BKN015 17/16 Q1002 RMK 1ST001 3ST005 5CU015 A2960
RJSK 210346Z 14004KT 100V250 6000 R28/2000N SHRA FEW001 SCT005 BKN015 17/16 Q1002 RMK 1ST001 3ST005 5CU015 A2960
RJSK 210300Z 13005KT 110V170 9999 -SHRA FEW003 SCT020 BKN030 18/17 Q1002
RJSK 210200Z 13006KT 100V180 9999 -SHRA FEW003 SCT050 BKN070 18/17 Q1002
RJSK 210125Z 13008KT 090V150 9999 -SHRA FEW001 SCT008 BKN050 17/17 Q1002 RMK 1ST001 3ST008 5CU050 A2959
RJSK 210100Z 12008KT 100V160 6000 -SHRA FEW001 SCT003 BKN008 17/17 Q1002
RJSK 210044Z 14006KT 110V200 3000 SHRA BR FEW001 BKN003 BKN006 17/16 Q1002 RMK 1ST001 5ST003 6ST006 A2961
RJSK 210034Z 15005KT 120V180 3000 -SHRA BR FEW001 SCT003 BKN006 17/17 Q1002 RMK 1ST001 3ST003 5ST006 A2960
RJSK 210022Z 14005KT 4500 SHRA BR FEW001 SCT008 BKN012 17/16 Q1002 RMK 1ST001 3ST008 7ST012 A2960
RJSK 210003Z 14005KT 100V180 4000 -SHRA BR FEW001 SCT008 BKN040 17/16 Q1002 RMK 1ST001 3ST008 7CU040 A2959
RJSK 210000Z 14005KT 100V180 5000 -SHRA BR FEW001 SCT008 BKN040 17/16 Q1002
RJSK 202345Z 13005KT 090V170 5000 -SHRA BR FEW001 SCT020 BKN040 17/16 Q1002 RMK 1ST001 3CU020 6CU040 A2959
RJSK 202300Z 12009KT 5000 SHRA BR FEW001 SCT030 BKN045 16/16 Q1001
RJSK 202200Z 12008KT 5000 SHRA BR FEW001 SCT030 BKN045 16/16 Q1002
RJSK 202140Z 13007KT 5000 SHRA BR FEW001 SCT030 BKN045 16/15 Q1002 RMK 1ST001 3CU030 6CU045 A2961
RJSK 201200Z 13015KT 100V160 9999 FEW060 SCT120 BKN/// 20/13 Q1007
RJSK 201100Z 12015G26KT 9999 FEW060 BKN120 BKN/// 20/12 Q1007
RJSK 201000Z 12016G27KT 9999 FEW060 BKN120 BKN/// 20/12 Q1008
RJSK 200900Z 12017G27KT 090V150 9999 FEW040 SCT120 BKN/// 21/13 Q1008
RJSK 200800Z 12017KT 100V160 9999 FEW040 SCT180 BKN/// 22/12 Q1008
RJSK 200700Z 12017G27KT 100V160 9999 FEW040 BKN/// 24/12 Q1008
RJSK 200600Z 12018G28KT 100V160 9999 FEW040 BKN/// 24/12 Q1008
RJSK 200500Z 13019G32KT 090V170 9999 FEW045 SCT/// 25/11 Q1009
RJSK 200400Z 13016KT 100V160 9999 FEW045 SCT/// 25/12 Q1010
RJSK 200300Z 15017G28KT 110V190 9999 FEW045 BKN/// 24/11 Q1010
RJSK 200200Z 13018G28KT 070V170 9999 FEW040 BKN/// 24/11 Q1011
RJSK 200100Z 15016G28KT 100V180 9999 FEW040 BKN/// 23/10 Q1012
RJSK 200000Z 14014G25KT 100V210 9999 FEW040 SCT/// 22/10 Q1012
RJSK 192300Z 13015KT 090V170 9999 FEW040 SCT/// 21/11 Q1013
RJSK 192200Z 12013KT 9999 FEW040 SCT/// 20/11 Q1014
RJSK 192140Z 12012KT 9999 FEW040 SCT/// 19/11 Q1014 RMK 1CU040 A2997
RJSK 191200Z 12010KT CAVOK 19/11 Q1018
RJSK 191100Z 12011KT CAVOK 19/11 Q1018
RJSK 191000Z 13008KT 110V180 CAVOK 21/11 Q1018
RJSK 190900Z 12011KT 9999 FEW030 SCT/// 22/10 Q1017
RJSK 190800Z 13011G21KT 110V180 9999 FEW050 SCT/// 24/10 Q1017
RJSK 190700Z 14014KT 100V190 9999 FEW030 25/11 Q1017
RJSK 190600Z 15012KT 120V190 9999 FEW050 26/10 Q1017
RJSK 190500Z 12010KT 080V180 9999 FEW040 26/10 Q1018
RJSK 190400Z 16011KT 120V190 9999 FEW040 26/09 Q1019
RJSK 190300Z VRB08KT 9999 FEW040 25/09 Q1019
RJSK 190200Z 15009KT 100V200 9999 FEW040 SCT/// 25/10 Q1020
RJSK 190100Z 13011KT 090V190 9999 FEW040 SCT/// 24/11 Q1021
RJSK 190000Z 13010KT 100V180 CAVOK 22/11 Q1021
RJSK 182300Z 14006KT 100V180 CAVOK 19/12 Q1021